Mi Chai, Thailand

8:28 PM ICT on August 26, 2016 (GMT +0700)
tha bo moo 1 | | Change Station

Elev 571 ft 17.86 °N, 102.58 °E | Updated 12 minutes ago

Thunderstorm
Thunderstorm
79.3 °F
Feels Like 84 °F
N
0.0
Wind Variable Wind from ESE
Gusts 0.0 mph

Today
High -- | Low -- °F
--% Chance of Precip.
Yesterday
High -- | Low -- °F
Precip. -- in
Pressure 29.71 in
Visibility 2.5 miles
Clouds Few 2000 ft
Few 4000 ft
Heat Index 84 °F
Dew Point 78 °F
Humidity 95%
Rainfall 0.00 in
Snow Depth Not available.
5:53 AM 6:27 PM
Waning Crescent, 34% visible
METAR VLVT 261300Z 12002KT 4000 TS FEW020CB FEW040 27/26 Q1006 CB,NW NOSIG
Pressure 29.71 in
Visibility 2.5 miles
Clouds Few 2000 ft
Few 4000 ft
Heat Index 84 °F
Dew Point 78 °F
Humidity 95%
Rainfall 0.00 in
Snow Depth Not available.
5:53 AM 6:27 PM
Waning Crescent, 34% visible
METAR VLVT 261300Z 12002KT 4000 TS FEW020CB FEW040 27/26 Q1006 CB,NW NOSIG

10-Day Weather Forecast

No radar image for this location.
×

Almanac

Astronomy

Aug. 26, 2016 Rise Set
Actual Time
Civil Twilight
Nautical Twilight
Astronomical Twilight
Moon
Length of Visible Light
Length of Day
Tomorrow will be .
, % of the Moon is Illuminated

Today's Extremes

Country Highs Country Lows

Community

WunderPhotos

Upload Photos

1,935,084 photos uploaded!

WunderBlog® & News

Nearby

Air Quality

  Air Quality AQ Index Pollutant
Not available.

Snow Depth

Station Depth Elevation

Earthquake Activity

City Distance Mag. Time & Date
Minimum magnitude displayed is 2.5.

Coastal Water Temperatures

Place Temperature

Stations

Nearby Weather Stations

Station Location Temp. Windchill Dew Point Humidity Wind Precip. Elev Updated Type